Time;durP1;ratioP1;P1;durP2;ratioP2;P2;SDS_P1;SDS_P2;PMS_P1;PMS_P2;Temp;Humidity;BMP_temperature;BMP_pressure;BME280_temperature;BME280_humidity;BME280_pressure;Samples;Min_cycle;Max_cycle;Signal;HPM_P1;HPM_P2
2022/10/25 00:01:04;;;;;;;6.15;1.90;;;;;;;;;;7391225;19;20665;-79
2022/10/25 00:03:29;;;;;;;5.47;1.70;;;;;;;;;;7389850;19;20058;-79
2022/10/25 00:05:54;;;;;;;5.47;1.90;;;;;;;;;;7392638;19;20023;-78
2022/10/25 00:08:20;;;;;;;6.28;2.00;;;;;;;;;;7390524;19;20005;-79
2022/10/25 00:10:45;;;;;;;4.05;1.70;;;;;;;;;;7389728;19;20003;-78
2022/10/25 00:13:10;;;;;;;5.07;1.70;;;;;;;;;;7390985;19;20074;-77
2022/10/25 00:15:36;;;;;;;3.42;1.60;;;;;;;;;;7392797;19;20060;-78
2022/10/25 00:18:01;;;;;;;8.75;1.55;;;;;;;;;;7391727;19;20035;-79
2022/10/25 00:20:27;;;;;;;4.40;1.70;;;;;;;;;;7389948;19;20003;-78
2022/10/25 00:22:52;;;;;;;7.78;1.77;;;;;;;;;;7390334;19;20405;-77
2022/10/25 00:25:18;;;;;;;4.93;1.60;;;;;;;;;;7391671;19;20002;-78
2022/10/25 00:27:43;;;;;;;5.53;1.50;;;;;;;;;;7390333;19;20002;-79
2022/10/25 00:30:09;;;;;;;5.57;1.58;;;;;;;;;;7392270;19;20010;-78
2022/10/25 00:32:34;;;;;;;7.80;1.80;;;;;;;;;;7390126;19;20767;-78
2022/10/25 00:35:00;;;;;;;4.55;1.70;;;;;;;;;;7389375;19;20002;-79
2022/10/25 00:37:26;;;;;;;3.25;1.50;;;;;;;;;;7391610;19;20471;-79
2022/10/25 00:39:51;;;;;;;3.40;1.40;;;;;;;;;;7388359;19;20033;-79
2022/10/25 00:42:23;;;;;;;5.18;1.60;;;;;;;;;;7389692;19;20002;-79
2022/10/25 00:44:53;;;;;;;5.72;1.67;;;;;;;;;;7390613;19;20003;-78
2022/10/25 00:47:18;;;;;;;4.30;1.50;;;;;;;;;;7390288;19;20002;-79
2022/10/25 00:50:00;;;;;;;4.10;1.30;;;;;;;;;;7389502;19;20082;-77
2022/10/25 00:52:28;;;;;;;4.50;1.42;;;;;;;;;;7389371;19;20007;-80
2022/10/25 00:54:53;;;;;;;5.30;1.50;;;;;;;;;;7390714;19;20002;-78
2022/10/25 00:57:33;;;;;;;3.15;1.23;;;;;;;;;;7390453;19;20102;-78
2022/10/25 01:00:00;;;;;;;5.65;1.58;;;;;;;;;;7389303;19;20018;-79
2022/10/25 01:02:25;;;;;;;1.98;1.30;;;;;;;;;;7389820;19;20026;-79
2022/10/25 01:04:52;;;;;;;4.97;1.40;;;;;;;;;;7385895;19;20070;-79
2022/10/25 01:07:17;;;;;;;7.57;1.40;;;;;;;;;;7387119;19;20040;-78
2022/10/25 01:09:43;;;;;;;4.93;1.23;;;;;;;;;;7387264;19;20002;-78
2022/10/25 01:12:08;;;;;;;3.33;1.60;;;;;;;;;;7388515;19;20002;-79
2022/10/25 01:14:36;;;;;;;2.53;1.48;;;;;;;;;;7392369;19;19995;-77
2022/10/25 01:17:12;;;;;;;4.30;1.30;;;;;;;;;;7389651;19;20500;-78
2022/10/25 01:19:59;;;;;;;7.65;1.60;;;;;;;;;;7388520;19;20006;-80
2022/10/25 01:22:48;;;;;;;2.55;1.30;;;;;;;;;;7388128;19;19994;-77
2022/10/25 01:25:35;;;;;;;3.85;1.70;;;;;;;;;;7389287;19;19998;-79
2022/10/25 01:28:10;;;;;;;2.20;1.10;;;;;;;;;;7386554;19;20072;-78
2022/10/25 01:30:41;;;;;;;4.75;1.38;;;;;;;;;;7387606;19;20062;-77
2022/10/25 01:33:15;;;;;;;;;;;;;;;;;;7388359;19;20013;-78
2022/10/25 01:35:54;;;;;;;9.43;1.70;;;;;;;;;;7388943;19;19914;-79
2022/10/25 01:38:32;;;;;;;4.25;1.20;;;;;;;;;;7389292;19;20009;-79
2022/10/25 01:41:27;;;;;;;4.68;1.15;;;;;;;;;;7386910;19;20002;-78
2022/10/25 01:44:09;;;;;;;3.75;1.48;;;;;;;;;;7388452;19;20011;-78
2022/10/25 01:46:54;;;;;;;3.22;1.23;;;;;;;;;;7388195;19;20002;-79
2022/10/25 01:49:28;;;;;;;1.90;1.17;;;;;;;;;;7393469;19;20427;-79
2022/10/25 01:51:54;;;;;;;9.98;1.60;;;;;;;;;;7387336;19;20019;-77
2022/10/25 01:54:23;;;;;;;9.55;1.65;;;;;;;;;;7388918;19;19995;-78
2022/10/25 01:57:16;;;;;;;5.97;1.40;;;;;;;;;;7388415;19;20022;-77
2022/10/25 01:59:55;;;;;;;6.97;1.50;;;;;;;;;;7387955;19;20345;-79
2022/10/25 02:02:27;;;;;;;4.35;1.40;;;;;;;;;;7387085;19;20009;-78
2022/10/25 02:05:21;;;;;;;3.63;1.52;;;;;;;;;;7388487;19;20016;-77
2022/10/25 02:08:07;;;;;;;4.05;1.52;;;;;;;;;;7385968;19;20010;-79
2022/10/25 02:10:50;;;;;;;4.22;1.70;;;;;;;;;;7386716;19;20006;-79
2022/10/25 02:13:32;;;;;;;2.28;1.30;;;;;;;;;;7385338;19;20002;-78
2022/10/25 02:16:24;;;;;;;3.47;1.38;;;;;;;;;;7386331;19;20001;-78
2022/10/25 02:18:54;;;;;;;4.22;1.30;;;;;;;;;;7385788;19;20017;-77
2022/10/25 02:21:21;;;;;;;6.38;1.70;;;;;;;;;;7386378;19;20003;-79
2022/10/25 02:23:48;;;;;;;6.13;1.40;;;;;;;;;;7387853;19;19999;-77
2022/10/25 02:26:15;;;;;;;6.43;1.50;;;;;;;;;;7387817;19;20006;-77
2022/10/25 02:28:41;;;;;;;5.25;1.48;;;;;;;;;;7386014;19;20076;-77
2022/10/25 02:31:10;;;;;;;4.32;1.50;;;;;;;;;;7386058;19;19995;-77
2022/10/25 02:33:36;;;;;;;4.25;1.35;;;;;;;;;;7392036;19;19995;-80
2022/10/25 02:36:13;;;;;;;2.63;1.48;;;;;;;;;;7387487;19;20002;-78
2022/10/25 02:38:39;;;;;;;5.10;1.60;;;;;;;;;;7387167;19;19995;-77
2022/10/25 02:41:05;;;;;;;4.28;1.58;;;;;;;;;;7386262;19;20002;-76
2022/10/25 02:43:31;;;;;;;4.10;1.50;;;;;;;;;;7387287;19;20005;-76
2022/10/25 02:46:06;;;;;;;3.92;1.40;;;;;;;;;;7386971;19;19995;-78
2022/10/25 02:48:31;;;;;;;4.25;1.40;;;;;;;;;;7383755;19;20416;-78
2022/10/25 02:50:57;;;;;;;5.38;1.58;;;;;;;;;;7384639;19;19999;-78
2022/10/25 02:53:22;;;;;;;2.40;1.40;;;;;;;;;;7387515;19;19991;-78
2022/10/25 02:55:47;;;;;;;2.78;1.35;;;;;;;;;;7384448;19;20070;-78
2022/10/25 02:58:13;;;;;;;5.22;1.73;;;;;;;;;;7390933;19;19994;-78
2022/10/25 03:00:38;;;;;;;4.63;1.50;;;;;;;;;;7391161;19;19999;-76
2022/10/25 03:03:03;;;;;;;4.70;1.50;;;;;;;;;;7392804;19;20018;-79
2022/10/25 03:05:29;;;;;;;8.52;1.73;;;;;;;;;;7393754;19;20018;-78
2022/10/25 03:07:54;;;;;;;4.25;1.40;;;;;;;;;;7392270;19;20002;-78
2022/10/25 03:10:19;;;;;;;4.05;1.50;;;;;;;;;;7391558;19;19999;-78
2022/10/25 03:12:45;;;;;;;6.30;1.77;;;;;;;;;;7392180;19;20077;-76
2022/10/25 03:15:10;;;;;;;5.35;1.40;;;;;;;;;;7393372;19;20070;-77
2022/10/25 03:17:35;;;;;;;3.35;1.42;;;;;;;;;;7393228;19;20456;-78
2022/10/25 03:20:01;;;;;;;8.23;1.60;;;;;;;;;;7395423;19;20022;-78
2022/10/25 03:22:26;;;;;;;8.07;1.52;;;;;;;;;;7392530;19;20005;-77
2022/10/25 03:24:51;;;;;;;9.13;1.50;;;;;;;;;;7393194;19;20337;-79
2022/10/25 03:27:16;;;;;;;5.97;1.85;;;;;;;;;;7392629;19;20492;-78
2022/10/25 03:29:42;;;;;;;4.78;1.33;;;;;;;;;;7392147;19;20006;-77
2022/10/25 03:32:08;;;;;;;2.45;1.35;;;;;;;;;;7392440;19;19998;-76
2022/10/25 03:34:34;;;;;;;7.00;1.60;;;;;;;;;;7390988;19;20002;-77
2022/10/25 03:36:59;;;;;;;4.25;1.73;;;;;;;;;;7389670;19;20022;-78
2022/10/25 03:39:24;;;;;;;8.23;2.08;;;;;;;;;;7389709;19;20006;-77
2022/10/25 03:41:50;;;;;;;5.25;1.52;;;;;;;;;;7391659;19;20003;-78
2022/10/25 03:44:15;;;;;;;4.18;1.60;;;;;;;;;;7393573;19;20025;-79
2022/10/25 03:46:41;;;;;;;7.57;1.77;;;;;;;;;;7391580;19;20011;-78
2022/10/25 03:49:06;;;;;;;8.13;1.75;;;;;;;;;;7388188;19;19999;-78
2022/10/25 03:51:31;;;;;;;3.88;1.80;;;;;;;;;;7390788;19;20025;-78
2022/10/25 03:53:57;;;;;;;3.58;1.65;;;;;;;;;;7394117;19;20013;-78
2022/10/25 03:56:22;;;;;;;6.15;1.70;;;;;;;;;;7391988;19;20002;-79
2022/10/25 03:58:47;;;;;;;5.63;1.67;;;;;;;;;;7391897;19;20299;-78
2022/10/25 04:01:13;;;;;;;8.38;1.90;;;;;;;;;;7390745;19;20030;-78
2022/10/25 04:03:38;;;;;;;6.72;2.00;;;;;;;;;;7391780;19;20022;-77
2022/10/25 04:06:04;;;;;;;4.93;2.00;;;;;;;;;;7391850;19;20026;-79
2022/10/25 04:08:29;;;;;;;4.82;1.75;;;;;;;;;;7389662;19;20066;-76
2022/10/25 04:10:54;;;;;;;6.00;1.88;;;;;;;;;;7391634;19;20009;-77
2022/10/25 04:13:20;;;;;;;3.85;1.55;;;;;;;;;;7391303;19;20006;-79
2022/10/25 04:15:45;;;;;;;9.00;2.28;;;;;;;;;;7391862;19;19998;-77
2022/10/25 04:18:10;;;;;;;4.70;1.83;;;;;;;;;;7391560;19;20235;-77
2022/10/25 04:20:36;;;;;;;6.50;2.13;;;;;;;;;;7389813;19;20023;-76
2022/10/25 04:23:01;;;;;;;4.55;1.90;;;;;;;;;;7390584;19;20309;-78
2022/10/25 04:25:27;;;;;;;8.40;2.22;;;;;;;;;;7391229;19;20026;-78
2022/10/25 04:27:53;;;;;;;6.82;2.03;;;;;;;;;;7388678;19;20024;-77
2022/10/25 04:30:18;;;;;;;7.78;2.45;;;;;;;;;;7391357;19;20027;-78
2022/10/25 04:32:43;;;;;;;8.07;2.20;;;;;;;;;;7389515;19;20002;-78
2022/10/25 04:35:09;;;;;;;6.13;2.15;;;;;;;;;;7389650;19;20007;-78
2022/10/25 04:37:34;;;;;;;4.63;2.13;;;;;;;;;;7393545;19;20226;-76
2022/10/25 04:40:00;;;;;;;7.28;2.25;;;;;;;;;;7389155;19;20030;-78
2022/10/25 04:42:25;;;;;;;7.22;2.42;;;;;;;;;;7389384;19;19995;-78
2022/10/25 04:44:51;;;;;;;4.35;2.22;;;;;;;;;;7390766;19;20563;-78
2022/10/25 04:47:16;;;;;;;8.45;2.38;;;;;;;;;;7393625;19;20466;-78
2022/10/25 04:49:41;;;;;;;5.13;2.40;;;;;;;;;;7389191;19;20375;-77
2022/10/25 04:52:06;;;;;;;7.78;2.28;;;;;;;;;;7388717;19;20076;-78
2022/10/25 04:54:32;;;;;;;6.40;2.53;;;;;;;;;;7389937;19;20487;-78
2022/10/25 04:56:57;;;;;;;15.32;2.67;;;;;;;;;;7390217;19;20274;-77
2022/10/25 04:59:23;;;;;;;9.65;2.42;;;;;;;;;;7391028;19;20009;-78
2022/10/25 05:01:49;;;;;;;7.97;2.30;;;;;;;;;;7388602;19;20074;-78
2022/10/25 05:04:14;;;;;;;9.50;2.70;;;;;;;;;;7389664;19;20010;-77
2022/10/25 05:06:39;;;;;;;11.82;4.13;;;;;;;;;;7393068;19;19990;-76
2022/10/25 05:09:05;;;;;;;21.08;8.73;;;;;;;;;;7390937;19;19999;-76
2022/10/25 05:11:31;;;;;;;14.57;6.40;;;;;;;;;;7391996;19;20030;-78
2022/10/25 05:13:56;;;;;;;7.00;2.80;;;;;;;;;;7392010;19;20022;-77
2022/10/25 05:16:23;;;;;;;6.85;3.25;;;;;;;;;;7381706;19;20065;-76
2022/10/25 05:18:53;;;;;;;6.80;3.30;;;;;;;;;;7390189;19;20009;-78
2022/10/25 05:21:19;;;;;;;6.53;3.00;;;;;;;;;;7387869;19;20578;-78
2022/10/25 05:23:45;;;;;;;7.85;3.30;;;;;;;;;;7389036;19;20274;-80
2022/10/25 05:26:13;;;;;;;8.02;2.92;;;;;;;;;;7391527;19;19991;-77
2022/10/25 05:28:41;;;;;;;8.75;2.95;;;;;;;;;;7388171;19;19998;-78
2022/10/25 05:31:14;;;;;;;6.30;2.80;;;;;;;;;;7383268;19;20015;-78
2022/10/25 05:33:40;;;;;;;11.15;3.00;;;;;;;;;;7392047;19;20010;-76
2022/10/25 05:36:06;;;;;;;5.97;2.90;;;;;;;;;;7389141;19;20009;-77
2022/10/25 05:38:31;;;;;;;8.07;2.90;;;;;;;;;;7387273;19;20013;-77
2022/10/25 05:40:58;;;;;;;6.28;3.10;;;;;;;;;;7388591;19;20030;-77
2022/10/25 05:43:25;;;;;;;8.60;3.30;;;;;;;;;;7389671;19;20319;-77
2022/10/25 05:45:51;;;;;;;11.20;3.20;;;;;;;;;;7389446;19;20006;-77
2022/10/25 05:48:20;;;;;;;6.97;2.95;;;;;;;;;;7388782;19;20003;-78
2022/10/25 05:50:46;;;;;;;11.02;3.80;;;;;;;;;;7388999;19;20038;-78
2022/10/25 05:53:11;;;;;;;7.70;3.33;;;;;;;;;;7384638;19;20460;-78
2022/10/25 05:55:37;;;;;;;8.30;3.30;;;;;;;;;;7388493;19;20006;-79
2022/10/25 05:58:02;;;;;;;6.50;2.80;;;;;;;;;;7386103;19;19999;-78
2022/10/25 06:00:28;;;;;;;7.35;2.83;;;;;;;;;;7390029;19;20010;-79
2022/10/25 06:02:53;;;;;;;43.22;23.73;;;;;;;;;;7386444;19;20095;-79
2022/10/25 06:05:20;;;;;;;10.15;4.60;;;;;;;;;;7390489;19;20002;-78
2022/10/25 06:07:46;;;;;;;10.27;3.17;;;;;;;;;;7388955;19;20022;-78
2022/10/25 06:10:11;;;;;;;10.48;3.03;;;;;;;;;;7390026;19;19998;-77
2022/10/25 06:12:36;;;;;;;8.40;3.05;;;;;;;;;;7378013;19;20367;-77
2022/10/25 06:15:02;;;;;;;8.40;2.63;;;;;;;;;;7387675;19;20098;-78
2022/10/25 06:17:27;;;;;;;8.73;3.35;;;;;;;;;;7390289;19;20066;-79
2022/10/25 06:19:53;;;;;;;24.25;11.43;;;;;;;;;;7388456;19;20003;-76
2022/10/25 06:22:18;;;;;;;21.23;8.60;;;;;;;;;;7385538;19;19998;-77
2022/10/25 06:24:43;;;;;;;14.18;5.22;;;;;;;;;;7385658;19;20026;-79
2022/10/25 06:27:09;;;;;;;11.80;4.05;;;;;;;;;;7388536;19;20006;-79
2022/10/25 06:29:34;;;;;;;8.27;3.53;;;;;;;;;;7387477;19;20022;-78
2022/10/25 06:31:59;;;;;;;15.63;3.70;;;;;;;;;;7387723;19;19995;-76
2022/10/25 06:34:25;;;;;;;15.93;3.50;;;;;;;;;;7393043;19;20006;-77
2022/10/25 06:36:50;;;;;;;6.20;2.88;;;;;;;;;;7396630;19;20010;-78
2022/10/25 06:39:15;;;;;;;12.10;3.65;;;;;;;;;;7394863;19;20014;-78
2022/10/25 06:41:41;;;;;;;10.07;3.33;;;;;;;;;;7396531;19;20009;-79
2022/10/25 06:44:06;;;;;;;76.82;40.85;;;;;;;;;;7394068;19;20006;-77
2022/10/25 06:46:33;;;;;;;16.85;8.52;;;;;;;;;;7395511;19;20031;-78
2022/10/25 06:49:00;;;;;;;9.35;3.67;;;;;;;;;;7392669;19;20030;-76
2022/10/25 06:51:27;;;;;;;20.48;3.65;;;;;;;;;;7396088;19;20426;-76
2022/10/25 06:53:54;;;;;;;9.82;3.28;;;;;;;;;;7395901;19;20193;-76
2022/10/25 06:56:19;;;;;;;8.65;3.17;;;;;;;;;;7396238;19;20002;-82
2022/10/25 06:58:44;;;;;;;8.55;2.90;;;;;;;;;;7395958;19;20486;-79
2022/10/25 07:01:12;;;;;;;13.35;3.10;;;;;;;;;;7395329;19;20405;-77
2022/10/25 07:03:38;;;;;;;12.57;3.20;;;;;;;;;;7394263;19;20002;-77
2022/10/25 07:06:06;;;;;;;12.25;3.40;;;;;;;;;;7391458;19;20002;-77
2022/10/25 07:08:36;;;;;;;11.65;3.35;;;;;;;;;;7388060;19;20014;-77
2022/10/25 07:11:02;;;;;;;8.38;3.30;;;;;;;;;;7390678;19;20006;-77
2022/10/25 07:13:29;;;;;;;11.50;3.40;;;;;;;;;;7394345;19;20009;-76
2022/10/25 07:16:04;;;;;;;10.18;2.72;;;;;;;;;;7394417;19;20340;-77
2022/10/25 07:18:30;;;;;;;9.77;2.95;;;;;;;;;;7391965;19;20040;-77
2022/10/25 07:20:59;;;;;;;12.32;3.10;;;;;;;;;;7394102;19;20105;-77
2022/10/25 07:23:25;;;;;;;7.40;2.40;;;;;;;;;;7389987;19;20010;-77
2022/10/25 07:25:50;;;;;;;6.05;2.35;;;;;;;;;;7396711;19;20010;-77
2022/10/25 07:28:15;;;;;;;20.55;12.25;;;;;;;;;;7395455;19;20050;-77
2022/10/25 07:30:47;;;;;;;11.32;2.60;;;;;;;;;;7393045;19;19998;-77
2022/10/25 07:33:13;;;;;;;9.60;2.60;;;;;;;;;;7394399;19;20010;-75
2022/10/25 07:35:43;;;;;;;5.20;2.17;;;;;;;;;;7391511;19;20066;-77
2022/10/25 07:38:08;;;;;;;6.38;2.30;;;;;;;;;;7394807;19;19999;-78
2022/10/25 07:40:33;;;;;;;7.57;2.67;;;;;;;;;;7392688;19;20009;-76
2022/10/25 07:42:58;;;;;;;8.02;2.50;;;;;;;;;;7394402;19;20077;-76
2022/10/25 07:45:24;;;;;;;8.27;2.97;;;;;;;;;;7391851;19;20016;-77
2022/10/25 07:47:51;;;;;;;7.65;2.50;;;;;;;;;;7393169;19;19995;-77
2022/10/25 07:50:18;;;;;;;5.32;2.72;;;;;;;;;;7388048;19;20003;-76
2022/10/25 07:52:44;;;;;;;9.13;2.88;;;;;;;;;;7393705;19;20033;-76
2022/10/25 07:55:09;;;;;;;9.95;2.78;;;;;;;;;;7393612;19;20003;-77
2022/10/25 07:57:34;;;;;;;8.73;2.83;;;;;;;;;;7395881;19;20496;-77
2022/10/25 08:00:00;;;;;;;9.45;2.83;;;;;;;;;;7392947;19;20287;-77
2022/10/25 08:02:25;;;;;;;10.38;2.78;;;;;;;;;;7394350;19;20003;-79
2022/10/25 08:04:51;;;;;;;9.57;2.75;;;;;;;;;;7396123;19;20074;-77
2022/10/25 08:07:16;;;;;;;5.95;2.50;;;;;;;;;;7395098;19;20014;-76
2022/10/25 08:09:41;;;;;;;6.78;3.00;;;;;;;;;;7394162;19;20939;-76
2022/10/25 08:12:07;;;;;;;14.05;3.70;;;;;;;;;;7394447;19;20496;-77
2022/10/25 08:14:32;;;;;;;8.15;2.70;;;;;;;;;;7392842;19;19999;-77
2022/10/25 08:16:57;;;;;;;7.28;2.72;;;;;;;;;;7394263;19;20005;-77
2022/10/25 08:19:22;;;;;;;8.98;2.95;;;;;;;;;;7393820;19;20022;-77
2022/10/25 08:21:48;;;;;;;11.30;3.10;;;;;;;;;;7393170;19;20741;-77
2022/10/25 08:24:13;;;;;;;6.60;3.20;;;;;;;;;;7392028;19;20449;-77
2022/10/25 08:26:38;;;;;;;11.57;3.25;;;;;;;;;;7392274;19;20019;-76
2022/10/25 08:29:04;;;;;;;8.77;2.95;;;;;;;;;;7391572;19;20058;-78
2022/10/25 08:31:29;;;;;;;8.25;2.78;;;;;;;;;;7391637;19;20069;-79
2022/10/25 08:33:54;;;;;;;10.43;2.80;;;;;;;;;;7393626;19;20010;-77
2022/10/25 08:36:20;;;;;;;11.70;2.85;;;;;;;;;;7390657;19;20006;-77
2022/10/25 08:38:46;;;;;;;7.55;2.50;;;;;;;;;;7392076;19;20002;-75
2022/10/25 08:41:18;;;;;;;5.35;2.60;;;;;;;;;;7391509;19;20002;-77
2022/10/25 08:44:13;;;;;;;7.05;3.20;;;;;;;;;;7393673;19;20006;-76
2022/10/25 08:46:48;;;;;;;9.20;3.63;;;;;;;;;;7392145;19;20007;-77
2022/10/25 08:49:28;;;;;;;5.93;2.30;;;;;;;;;;7391062;19;20456;-78
2022/10/25 08:51:55;;;;;;;6.00;2.30;;;;;;;;;;7389523;19;20002;-77
2022/10/25 08:54:25;;;;;;;9.02;2.50;;;;;;;;;;7390096;19;20013;-77
2022/10/25 08:56:56;;;;;;;5.47;2.20;;;;;;;;;;7388891;19;19998;-77
2022/10/25 08:59:28;;;;;;;6.03;2.50;;;;;;;;;;7365893;19;20279;-78
2022/10/25 09:01:57;;;;;;;5.95;2.85;;;;;;;;;;7391196;19;20070;-77
2022/10/25 09:04:22;;;;;;;7.15;2.42;;;;;;;;;;7363556;19;20520;-77
2022/10/25 09:07:05;;;;;;;5.78;2.15;;;;;;;;;;7392494;19;20116;-78
2022/10/25 09:09:57;;;;;;;5.65;2.40;;;;;;;;;;7390785;19;20023;-77
2022/10/25 09:12:56;;;;;;;7.00;2.40;;;;;;;;;;7390058;19;20010;-75
2022/10/25 09:15:32;;;;;;;6.78;2.33;;;;;;;;;;7391637;19;20074;-77
2022/10/25 09:18:04;;;;;;;7.55;2.60;;;;;;;;;;7392123;19;20007;-76
2022/10/25 09:20:37;;;;;;;5.88;2.13;;;;;;;;;;7384938;19;20413;-78
2022/10/25 09:23:32;;;;;;;9.15;2.50;;;;;;;;;;7388620;19;20007;-76
2022/10/25 09:26:03;;;;;;;6.40;2.03;;;;;;;;;;7391310;19;20012;-77
2022/10/25 09:28:49;;;;;;;6.30;2.83;;;;;;;;;;7385877;19;20444;-76
2022/10/25 09:31:21;;;;;;;6.15;2.33;;;;;;;;;;7391272;19;20023;-76
2022/10/25 09:33:47;;;;;;;6.75;2.28;;;;;;;;;;7391350;19;20002;-77
2022/10/25 09:36:13;;;;;;;19.08;9.48;;;;;;;;;;7389329;19;19998;-78
2022/10/25 09:38:50;;;;;;;4.78;2.17;;;;;;;;;;7388850;19;20002;-78
2022/10/25 09:41:22;;;;;;;5.72;2.03;;;;;;;;;;7389673;19;20190;-77
2022/10/25 09:44:16;;;;;;;6.18;1.95;;;;;;;;;;7391923;19;20014;-77
2022/10/25 09:46:53;;;;;;;6.15;1.90;;;;;;;;;;7389538;19;20582;-76
2022/10/25 09:49:23;;;;;;;8.07;2.08;;;;;;;;;;7389374;19;20335;-77
2022/10/25 09:52:01;;;;;;;5.55;1.48;;;;;;;;;;7390569;19;20001;-78
2022/10/25 09:54:52;;;;;;;5.50;2.00;;;;;;;;;;7386810;19;19998;-78
2022/10/25 09:57:18;;;;;;;5.00;1.42;;;;;;;;;;7391018;19;19999;-78
2022/10/25 09:59:48;;;;;;;1.77;1.30;;;;;;;;;;7390495;19;20352;-77
2022/10/25 10:02:19;;;;;;;5.33;1.73;;;;;;;;;;7386212;19;20003;-77
2022/10/25 10:04:44;;;;;;;9.10;1.70;;;;;;;;;;7389458;19;20003;-77
2022/10/25 10:07:15;;;;;;;5.18;1.40;;;;;;;;;;7389928;19;20003;-77
2022/10/25 10:09:43;;;;;;;7.22;1.70;;;;;;;;;;7389850;19;19998;-77
2022/10/25 10:12:22;;;;;;;5.32;1.50;;;;;;;;;;7386885;19;19998;-78
2022/10/25 10:14:57;;;;;;;5.93;1.55;;;;;;;;;;7385075;19;19998;-78
2022/10/25 10:17:23;;;;;;;5.97;1.50;;;;;;;;;;7388191;19;20013;-77
2022/10/25 10:20:14;;;;;;;1.98;1.20;;;;;;;;;;7388315;19;20005;-76
2022/10/25 10:22:46;;;;;;;7.05;1.50;;;;;;;;;;7382760;19;20002;-77
2022/10/25 10:25:19;;;;;;;8.15;1.50;;;;;;;;;;7387519;19;20002;-77
2022/10/25 10:27:46;;;;;;;5.25;1.50;;;;;;;;;;7387533;19;20015;-78
2022/10/25 10:30:29;;;;;;;3.53;1.60;;;;;;;;;;7386412;19;19991;-78
2022/10/25 10:33:00;;;;;;;3.85;1.35;;;;;;;;;;7387730;19;20005;-76
2022/10/25 10:35:33;;;;;;;1.40;1.05;;;;;;;;;;7390498;19;19998;-77
2022/10/25 10:38:17;;;;;;;3.92;1.25;;;;;;;;;;7391688;19;19999;-79
2022/10/25 10:40:43;;;;;;;4.45;1.42;;;;;;;;;;7386799;19;20003;-77
2022/10/25 10:43:40;;;;;;;6.80;1.55;;;;;;;;;;7393058;19;20009;-84
2022/10/25 10:46:13;;;;;;;4.57;1.40;;;;;;;;;;7383787;19;20087;-82
2022/10/25 10:48:42;;;;;;;3.30;1.88;;;;;;;;;;7388197;19;20007;-82
2022/10/25 10:51:10;;;;;;;13.88;9.00;;;;;;;;;;7385903;19;19994;-82
2022/10/25 10:53:35;;;;;;;4.70;1.40;;;;;;;;;;7388903;19;20005;-83
2022/10/25 10:56:06;;;;;;;4.05;1.30;;;;;;;;;;7390109;19;19994;-82
2022/10/25 10:58:33;;;;;;;4.80;1.20;;;;;;;;;;7388501;19;20003;-83
2022/10/25 11:01:12;;;;;;;2.55;1.27;;;;;;;;;;7387588;19;20042;-81
2022/10/25 11:03:40;;;;;;;2.72;1.30;;;;;;;;;;7389236;19;20062;-81
2022/10/25 11:06:07;;;;;;;7.22;1.40;;;;;;;;;;7382293;19;20486;-83
2022/10/25 11:08:32;;;;;;;2.88;1.35;;;;;;;;;;7384872;19;20018;-83
2022/10/25 11:11:18;;;;;;;5.22;1.38;;;;;;;;;;7383117;19;20348;-82
2022/10/25 11:13:55;;;;;;;3.45;1.38;;;;;;;;;;7387416;19;20003;-82
2022/10/25 11:16:50;;;;;;;2.50;1.23;;;;;;;;;;7388255;19;19997;-82
2022/10/25 11:19:38;;;;;;;5.68;1.40;;;;;;;;;;7392579;19;20015;-82
2022/10/25 11:22:05;;;;;;;3.88;1.48;;;;;;;;;;7395567;19;20018;-82
2022/10/25 11:24:58;;;;;;;3.78;1.42;;;;;;;;;;7395901;19;19999;-83
2022/10/25 11:27:38;;;;;;;3.75;1.35;;;;;;;;;;7396483;19;19995;-82
2022/10/25 11:30:03;;;;;;;7.80;1.65;;;;;;;;;;7389772;19;20432;-82
2022/10/25 11:32:56;;;;;;;3.88;1.60;;;;;;;;;;7393137;19;19990;-82
2022/10/25 11:35:52;;;;;;;3.53;1.25;;;;;;;;;;7395761;19;20001;-81
2022/10/25 11:38:38;;;;;;;5.40;1.60;;;;;;;;;;7392225;19;20002;-82
2022/10/25 11:41:39;;;;;;;3.92;1.50;;;;;;;;;;7395165;19;20011;-82
2022/10/25 11:44:26;;;;;;;2.63;1.30;;;;;;;;;;7393624;19;20002;-82
2022/10/25 11:47:31;;;;;;;2.63;1.17;;;;;;;;;;7395571;19;20418;-83
2022/10/25 11:50:02;;;;;;;3.33;1.70;;;;;;;;;;7390997;19;20334;-82
2022/10/25 11:52:57;;;;;;;2.10;1.35;;;;;;;;;;7391100;19;20023;-81
2022/10/25 11:55:35;;;;;;;4.28;1.50;;;;;;;;;;7393196;19;20029;-82
2022/10/25 11:58:23;;;;;;;3.67;1.58;;;;;;;;;;7393163;19;19994;-83
2022/10/25 12:01:26;;;;;;;3.78;1.65;;;;;;;;;;7391265;19;19994;-81
2022/10/25 12:04:16;;;;;;;6.78;1.80;;;;;;;;;;7395505;19;20460;-80
2022/10/25 12:06:59;;;;;;;3.78;1.55;;;;;;;;;;7395690;19;20002;-82
2022/10/25 12:09:24;;;;;;;3.47;1.40;;;;;;;;;;7392275;19;19998;-81
2022/10/25 12:11:59;;;;;;;5.43;2.00;;;;;;;;;;7397499;19;20043;-82
2022/10/25 12:14:32;;;;;;;4.32;1.65;;;;;;;;;;7393723;19;20326;-82
2022/10/25 12:17:00;;;;;;;8.13;1.77;;;;;;;;;;7395991;19;20340;-83
2022/10/25 12:19:39;;;;;;;6.30;1.98;;;;;;;;;;7395032;19;19994;-82
2022/10/25 12:22:12;;;;;;;3.65;1.60;;;;;;;;;;7400797;19;19991;-83
2022/10/25 12:24:46;;;;;;;4.20;1.50;;;;;;;;;;7397854;19;20011;-83
2022/10/25 12:27:14;;;;;;;4.28;2.00;;;;;;;;;;7407348;19;20074;-81
2022/10/25 12:29:45;;;;;;;4.90;1.73;;;;;;;;;;7371361;19;20006;-82
2022/10/25 12:32:22;;;;;;;6.38;1.60;;;;;;;;;;7391064;19;20011;-82
2022/10/25 12:34:51;;;;;;;3.35;1.50;;;;;;;;;;7393458;19;20006;-82
2022/10/25 12:37:28;;;;;;;5.18;2.47;;;;;;;;;;7394903;19;20095;-82
2022/10/25 12:39:55;;;;;;;3.65;1.75;;;;;;;;;;7394082;19;20022;-83
2022/10/25 12:42:23;;;;;;;4.25;1.50;;;;;;;;;;7390899;19;20469;-82
2022/10/25 12:45:10;;;;;;;7.03;1.70;;;;;;;;;;7390508;19;20003;-82
2022/10/25 12:47:44;;;;;;;3.80;1.45;;;;;;;;;;7394185;19;20040;-83
2022/10/25 12:50:26;;;;;;;2.92;1.45;;;;;;;;;;7391618;19;20074;-81
2022/10/25 12:53:24;;;;;;;5.05;1.30;;;;;;;;;;7391707;19;20399;-81
2022/10/25 12:56:07;;;;;;;3.25;1.38;;;;;;;;;;7394023;19;20006;-80
2022/10/25 12:58:51;;;;;;;2.78;1.30;;;;;;;;;;7391429;19;20002;-81
2022/10/25 13:01:36;;;;;;;4.00;1.67;;;;;;;;;;7392826;19;20578;-81
2022/10/25 13:04:07;;;;;;;4.38;1.45;;;;;;;;;;7393630;19;19995;-80
2022/10/25 13:06:59;;;;;;;2.88;1.40;;;;;;;;;;7391346;19;20088;-80
2022/10/25 13:09:31;;;;;;;3.45;1.40;;;;;;;;;;7389886;19;19999;-80
2022/10/25 13:12:18;;;;;;;4.68;1.40;;;;;;;;;;7390117;19;20003;-80
2022/10/25 13:14:46;;;;;;;6.72;1.83;;;;;;;;;;7390232;19;20001;-79
2022/10/25 13:17:14;;;;;;;1.42;1.25;;;;;;;;;;7390331;19;20022;-80
2022/10/25 13:19:40;;;;;;;3.90;1.60;;;;;;;;;;7391703;19;20495;-82
2022/10/25 13:22:29;;;;;;;2.75;1.50;;;;;;;;;;7389225;19;20027;-81
2022/10/25 13:24:56;;;;;;;4.35;1.52;;;;;;;;;;7389180;19;20014;-81
2022/10/25 13:27:32;;;;;;;4.22;1.70;;;;;;;;;;7391579;19;20010;-81
2022/10/25 13:30:07;;;;;;;11.38;6.63;;;;;;;;;;7392408;19;20009;-80
2022/10/25 13:32:37;;;;;;;2.75;1.30;;;;;;;;;;7388515;19;19998;-80
2022/10/25 13:35:22;;;;;;;4.43;1.40;;;;;;;;;;7390665;19;20007;-80
2022/10/25 13:38:05;;;;;;;3.33;1.27;;;;;;;;;;7388903;19;20003;-81
2022/10/25 13:40:31;;;;;;;2.15;1.35;;;;;;;;;;7387447;19;20003;-80
2022/10/25 13:43:26;;;;;;;2.10;1.17;;;;;;;;;;7388207;19;20006;-80
2022/10/25 13:45:55;;;;;;;4.05;1.73;;;;;;;;;;7387612;19;19998;-81
2022/10/25 13:48:31;;;;;;;3.33;1.20;;;;;;;;;;7388522;19;20038;-81
2022/10/25 13:51:16;;;;;;;3.78;1.40;;;;;;;;;;7380835;19;20026;-76
2022/10/25 13:53:45;;;;;;;2.25;1.45;;;;;;;;;;7389287;19;20030;-74
2022/10/25 13:56:14;;;;;;;5.85;1.50;;;;;;;;;;7389565;19;20344;-76
2022/10/25 13:58:46;;;;;;;3.80;1.45;;;;;;;;;;7390332;19;20007;-81
2022/10/25 14:01:14;;;;;;;2.90;1.67;;;;;;;;;;7389228;19;20614;-79
2022/10/25 14:03:48;;;;;;;1.70;1.35;;;;;;;;;;7389534;19;19999;-76
2022/10/25 14:06:37;;;;;;;5.00;1.50;;;;;;;;;;7388988;19;19998;-75
2022/10/25 14:09:11;;;;;;;5.72;1.48;;;;;;;;;;7390068;19;20002;-75
2022/10/25 14:11:39;;;;;;;3.55;1.50;;;;;;;;;;7389427;19;20007;-75
2022/10/25 14:14:10;;;;;;;2.42;1.50;;;;;;;;;;7388343;19;20017;-77
2022/10/25 14:17:10;;;;;;;3.33;1.55;;;;;;;;;;7390809;19;20432;-75
2022/10/25 14:19:39;;;;;;;2.38;1.40;;;;;;;;;;7389640;19;20010;-77
2022/10/25 14:22:32;;;;;;;5.65;1.67;;;;;;;;;;7388730;19;20019;-75
2022/10/25 14:25:01;;;;;;;5.15;1.65;;;;;;;;;;7388293;19;19999;-76
2022/10/25 14:27:32;;;;;;;5.20;1.48;;;;;;;;;;7388922;19;20004;-81
2022/10/25 14:30:19;;;;;;;3.72;1.38;;;;;;;;;;7390435;19;20002;-81
2022/10/25 14:33:38;;;;;;;3.90;1.50;;;;;;;;;;7387380;19;20011;-78
2022/10/25 14:36:03;;;;;;;4.20;1.70;;;;;;;;;;7383171;19;19991;-81
2022/10/25 14:38:29;;;;;;;2.60;1.53;;;;;;;;;;7387383;19;20003;-82
2022/10/25 14:40:57;;;;;;;3.78;1.40;;;;;;;;;;7386637;19;20271;-80
2022/10/25 14:43:32;;;;;;;3.70;1.58;;;;;;;;;;7382174;19;20574;-83
2022/10/25 14:46:01;;;;;;;2.72;1.45;;;;;;;;;;7388162;19;20003;-82
2022/10/25 14:48:28;;;;;;;4.47;1.40;;;;;;;;;;7386009;19;20009;-81
2022/10/25 14:50:56;;;;;;;5.25;1.83;;;;;;;;;;7386472;19;20496;-80
2022/10/25 14:53:21;;;;;;;3.13;1.42;;;;;;;;;;7389378;19;20070;-81
2022/10/25 14:56:00;;;;;;;4.60;1.52;;;;;;;;;;7396775;19;20011;-79
2022/10/25 14:58:30;;;;;;;4.18;1.60;;;;;;;;;;7393550;19;20001;-81
2022/10/25 15:00:59;;;;;;;4.97;1.77;;;;;;;;;;7396314;19;20017;-77
2022/10/25 15:03:28;;;;;;;4.13;1.73;;;;;;;;;;7397108;19;20022;-78
2022/10/25 15:05:56;;;;;;;4.60;1.80;;;;;;;;;;7396713;19;20002;-81